Time;durP1;ratioP1;P1;durP2;ratioP2;P2;SDS_P1;SDS_P2;PMS_P1;PMS_P2;Temp;Humidity;BMP_temperature;BMP_pressure;BME280_temperature;BME280_humidity;BME280_pressure;Samples;Min_cycle;Max_cycle;Signal;HPM_P1;HPM_P2
2023/09/27 00:01:42;;;;;;;11.65;10.45;;;;;;;13.60;100.00;101793.66;5022841;28;20083;-69
2023/09/27 00:04:07;;;;;;;12.88;10.77;;;;;;;13.55;100.00;101787.66;5023014;28;20231;-69
2023/09/27 00:06:32;;;;;;;14.73;11.15;;;;;;;13.56;100.00;101789.38;5023347;28;20053;-69
2023/09/27 00:08:58;;;;;;;11.80;10.65;;;;;;;13.51;100.00;101801.25;5022741;28;20045;-69
2023/09/27 00:11:23;;;;;;;14.23;11.02;;;;;;;13.48;100.00;101796.91;5004637;28;20052;-69
2023/09/27 00:13:49;;;;;;;12.38;10.27;;;;;;;13.44;100.00;101819.41;5022210;28;20033;-69
2023/09/27 00:16:14;;;;;;;10.65;9.65;;;;;;;13.44;100.00;101819.41;5022709;28;20156;-69
2023/09/27 00:18:39;;;;;;;11.63;10.43;;;;;;;13.41;100.00;101820.41;5022808;28;20037;-69
2023/09/27 00:21:05;;;;;;;12.20;9.93;;;;;;;13.38;100.00;101807.19;5022735;28;20269;-69
2023/09/27 00:23:30;;;;;;;11.15;10.05;;;;;;;13.36;100.00;101811.72;5023254;28;20499;-68
2023/09/27 00:25:55;;;;;;;11.35;10.13;;;;;;;13.28;100.00;101819.25;5022488;28;20045;-69
2023/09/27 00:28:21;;;;;;;10.90;9.90;;;;;;;13.30;100.00;101822.72;5022456;28;20033;-69
2023/09/27 00:30:49;;;;;;;11.20;9.90;;;;;;;13.21;100.00;101805.28;5022701;28;20029;-68
2023/09/27 00:33:15;;;;;;;10.73;9.65;;;;;;;13.28;100.00;101813.03;5022026;28;20061;-69
2023/09/27 00:35:40;;;;;;;10.27;9.32;;;;;;;13.25;100.00;101805.16;5022427;28;20083;-68
2023/09/27 00:38:06;;;;;;;11.85;9.75;;;;;;;13.19;100.00;101808.94;5022925;28;20112;-69
2023/09/27 00:40:31;;;;;;;10.35;9.35;;;;;;;13.18;100.00;101804.56;5023632;28;20030;-69
2023/09/27 00:42:57;;;;;;;11.00;9.55;;;;;;;13.15;100.00;101810.03;5022293;28;20041;-68
2023/09/27 00:45:22;;;;;;;10.90;9.80;;;;;;;13.12;100.00;101799.47;5009576;28;20036;-68
2023/09/27 00:47:51;;;;;;;11.45;10.15;;;;;;;13.09;100.00;101796.97;5022752;28;20032;-69
2023/09/27 00:50:17;;;;;;;10.50;9.40;;;;;;;13.11;100.00;101803.09;5022568;28;20350;-70
2023/09/27 00:52:44;;;;;;;10.60;9.70;;;;;;;13.10;100.00;101806.72;5022134;28;20030;-70
2023/09/27 00:55:12;;;;;;;12.73;10.30;;;;;;;13.04;100.00;101812.31;5022113;28;20025;-69
2023/09/27 00:57:38;;;;;;;10.63;9.45;;;;;;;13.04;100.00;101809.66;5021859;28;20131;-70
2023/09/27 01:00:10;;;;;;;10.52;9.50;;;;;;;12.97;100.00;101801.06;5023058;28;20029;-71
2023/09/27 01:02:35;;;;;;;12.82;9.63;;;;;;;12.95;100.00;101800.25;5022337;28;20112;-69
2023/09/27 01:05:01;;;;;;;10.93;9.93;;;;;;;12.95;100.00;101797.56;5022684;28;20164;-70
2023/09/27 01:07:26;;;;;;;10.20;9.20;;;;;;;12.94;100.00;101798.53;5022030;28;20499;-69
2023/09/27 01:09:52;;;;;;;10.00;9.10;;;;;;;12.90;100.00;101794.25;5021661;28;20032;-72
2023/09/27 01:12:17;;;;;;;11.02;9.93;;;;;;;12.89;100.00;101793.38;5003508;28;20040;-68
2023/09/27 01:14:45;;;;;;;11.45;10.27;;;;;;;12.88;100.00;101802.34;5021389;28;20025;-69
2023/09/27 01:17:10;;;;;;;10.57;9.65;;;;;;;12.84;100.00;101798.06;5021364;28;20022;-71
2023/09/27 01:19:37;;;;;;;10.80;9.65;;;;;;;12.82;100.00;101799.06;5020879;28;20503;-69
2023/09/27 01:22:02;;;;;;;10.90;9.60;;;;;;;12.82;100.00;101799.94;5022039;28;20021;-68
2023/09/27 01:24:30;;;;;;;10.07;9.15;;;;;;;12.77;100.00;101788.59;5021736;28;20522;-68
2023/09/27 01:26:57;;;;;;;10.60;9.50;;;;;;;12.77;100.00;101791.25;5021469;28;20625;-68
2023/09/27 01:29:22;;;;;;;11.00;9.65;;;;;;;12.75;100.00;101784.25;5022251;28;20359;-70
2023/09/27 01:31:48;;;;;;;10.00;9.00;;;;;;;12.72;100.00;101777.25;5021765;28;20033;-71
2023/09/27 01:34:13;;;;;;;10.32;9.23;;;;;;;12.67;100.00;101774.78;5022027;28;20167;-68
2023/09/27 01:36:39;;;;;;;9.77;8.77;;;;;;;12.66;100.00;101762.34;5021507;28;20025;-69
2023/09/27 01:39:07;;;;;;;9.75;8.82;;;;;;;12.57;100.00;101754.75;5022480;28;20044;-69
2023/09/27 01:41:32;;;;;;;10.40;9.35;;;;;;;12.58;100.00;101748.50;5022302;28;20085;-69
2023/09/27 01:43:58;;;;;;;10.63;9.63;;;;;;;12.58;100.00;101740.50;5023803;28;20128;-69
2023/09/27 01:46:23;;;;;;;10.20;9.32;;;;;;;12.49;100.00;101748.88;5025778;28;20853;-69
2023/09/27 01:48:49;;;;;;;10.35;9.35;;;;;;;12.48;100.00;101751.63;5025518;28;20044;-69
2023/09/27 01:51:14;;;;;;;10.95;9.95;;;;;;;12.51;100.00;101757.72;5026436;28;20045;-69
2023/09/27 01:53:40;;;;;;;11.10;9.88;;;;;;;12.51;100.00;101751.50;5025580;28;20040;-69
2023/09/27 01:56:05;;;;;;;10.68;9.68;;;;;;;12.51;100.00;101752.38;5025163;28;20018;-69
2023/09/27 01:58:30;;;;;;;11.10;9.98;;;;;;;12.46;100.00;101763.25;5025727;28;20032;-70
2023/09/27 02:00:56;;;;;;;11.18;10.13;;;;;;;12.46;100.00;101762.41;5025427;28;20243;-70
2023/09/27 02:03:21;;;;;;;10.82;9.82;;;;;;;12.39;100.00;101758.25;5025350;28;20029;-69
2023/09/27 02:05:46;;;;;;;11.25;10.00;;;;;;;12.32;100.00;101762.97;5025702;28;20029;-70
2023/09/27 02:08:12;;;;;;;10.77;9.77;;;;;;;12.32;100.00;101762.13;5025679;28;20124;-69
2023/09/27 02:10:38;;;;;;;11.07;9.90;;;;;;;12.27;100.00;101766.78;5024898;28;20028;-69
2023/09/27 02:13:03;;;;;;;11.60;10.60;;;;;;;12.24;100.00;101765.13;5025922;28;20471;-70
2023/09/27 02:15:28;;;;;;;12.02;10.73;;;;;;;12.20;100.00;101764.38;4996168;28;20571;-69
2023/09/27 02:17:54;;;;;;;12.20;10.95;;;;;;;12.15;100.00;101760.19;5024232;28;20233;-69
2023/09/27 02:20:20;;;;;;;11.60;10.52;;;;;;;12.17;100.00;101764.53;5025162;28;20452;-70
2023/09/27 02:22:47;;;;;;;11.38;10.20;;;;;;;12.13;100.00;101756.72;5025220;28;20104;-70
2023/09/27 02:25:13;;;;;;;11.15;9.98;;;;;;;12.13;100.00;101754.06;5024477;28;20535;-70
2023/09/27 02:27:40;;;;;;;11.43;10.40;;;;;;;12.09;100.00;101755.13;5025086;28;20113;-69
2023/09/27 02:30:07;;;;;;;11.30;10.20;;;;;;;12.10;100.00;101764.84;5025034;28;20480;-69
2023/09/27 02:32:38;;;;;;;11.30;10.10;;;;;;;12.08;100.00;101759.59;5025744;28;20561;-69
2023/09/27 02:35:04;;;;;;;11.48;10.30;;;;;;;12.06;100.00;101755.25;5025112;28;20027;-69
2023/09/27 02:37:31;;;;;;;10.63;9.57;;;;;;;12.07;100.00;101754.28;5007079;28;20033;-68
2023/09/27 02:39:57;;;;;;;11.15;10.00;;;;;;;12.07;100.00;101748.97;5023729;28;20431;-69
2023/09/27 02:42:22;;;;;;;11.55;10.55;;;;;;;12.07;100.00;101760.50;5023935;28;20036;-68
2023/09/27 02:44:48;;;;;;;11.25;10.15;;;;;;;12.00;100.00;101771.50;5024250;28;20106;-69
2023/09/27 02:47:13;;;;;;;11.32;10.13;;;;;;;12.01;100.00;101767.91;5023557;28;20092;-69
2023/09/27 02:49:38;;;;;;;11.73;10.40;;;;;;;12.01;100.00;101760.78;5023554;28;20065;-68
2023/09/27 02:52:06;;;;;;;11.85;10.75;;;;;;;12.02;100.00;101761.63;5024338;28;20017;-70
2023/09/27 02:54:33;;;;;;;11.60;10.43;;;;;;;11.93;100.00;101758.41;5023282;28;20067;-70
2023/09/27 02:56:58;;;;;;;11.70;10.52;;;;;;;11.96;100.00;101755.63;5022603;28;20041;-70
2023/09/27 02:59:23;;;;;;;11.65;10.45;;;;;;;11.90;100.00;101755.00;5023499;28;20308;-69
2023/09/27 03:01:49;;;;;;;11.35;10.23;;;;;;;11.91;100.00;101759.41;5023101;28;20056;-68
2023/09/27 03:04:15;;;;;;;11.25;10.20;;;;;;;11.90;100.00;101753.19;5023662;28;20549;-70
2023/09/27 03:06:42;;;;;;;11.65;10.55;;;;;;;11.88;100.00;101754.22;5023790;28;20060;-72
2023/09/27 03:09:11;;;;;;;11.60;10.35;;;;;;;11.87;100.00;101750.69;5023502;28;20025;-71
2023/09/27 03:11:37;;;;;;;12.10;10.65;;;;;;;11.77;100.00;101743.94;5023820;28;20058;-69
2023/09/27 03:14:02;;;;;;;12.43;11.23;;;;;;;11.77;100.00;101748.41;5024421;28;20060;-69
2023/09/27 03:16:29;;;;;;;11.77;10.60;;;;;;;11.78;100.00;101740.34;5023882;28;20383;-70
2023/09/27 03:18:58;;;;;;;11.55;10.45;;;;;;;11.81;100.00;101750.91;5003435;28;20475;-69
2023/09/27 03:21:24;;;;;;;11.48;10.38;;;;;;;11.80;100.00;101751.84;5023417;28;20083;-69
2023/09/27 03:23:49;;;;;;;11.73;10.57;;;;;;;11.76;100.00;101758.22;5022824;28;20029;-70
2023/09/27 03:26:14;;;;;;;11.70;10.60;;;;;;;11.78;100.00;101748.34;5023194;28;20040;-69
2023/09/27 03:28:40;;;;;;;11.90;10.70;;;;;;;11.80;100.00;101759.84;5022952;28;20116;-70
2023/09/27 03:31:05;;;;;;;11.70;10.50;;;;;;;11.76;100.00;101771.56;5023458;28;20045;-69
2023/09/27 03:33:31;;;;;;;16.10;12.02;;;;;;;11.75;100.00;101761.84;5023630;28;20025;-69
2023/09/27 03:35:57;;;;;;;12.38;11.15;;;;;;;11.76;100.00;101765.38;5015414;28;20531;-69
2023/09/27 03:38:23;;;;;;;11.77;10.70;;;;;;;11.72;100.00;101767.28;5000260;28;20033;-69
2023/09/27 03:40:48;;;;;;;11.27;10.27;;;;;;;11.71;100.00;101769.09;5023263;28;20488;-69
2023/09/27 03:43:14;;;;;;;12.05;10.88;;;;;;;11.66;100.00;101778.19;5023129;28;20446;-68
2023/09/27 03:45:40;;;;;;;11.55;10.55;;;;;;;11.63;100.00;101776.53;5023479;28;20013;-69
2023/09/27 03:48:05;;;;;;;12.63;11.35;;;;;;;11.64;100.00;101780.06;5023077;28;20021;-69
2023/09/27 03:50:31;;;;;;;11.63;10.25;;;;;;;11.63;100.00;101789.84;4992312;28;20559;-68
2023/09/27 03:52:57;;;;;;;11.95;10.82;;;;;;;11.57;100.00;101787.41;5022993;28;20043;-69
2023/09/27 03:55:23;;;;;;;11.27;10.18;;;;;;;11.58;100.00;101786.50;5022687;28;20112;-69
2023/09/27 03:57:48;;;;;;;12.45;11.18;;;;;;;11.55;100.00;101789.31;5022829;28;20120;-69
2023/09/27 04:00:16;;;;;;;14.15;12.48;;;;;;;11.52;100.00;101773.41;4991797;28;20038;-69
2023/09/27 04:02:41;;;;;;;15.63;12.98;;;;;;;11.48;100.00;101763.81;4997367;28;20091;-69
2023/09/27 04:05:07;;;;;;;14.75;13.07;;;;;;;11.49;100.00;101749.53;5017391;28;20503;-69
2023/09/27 04:07:33;;;;;;;14.70;13.20;;;;;;;11.53;100.00;101758.28;5023118;28;20109;-68
2023/09/27 04:10:00;;;;;;;14.38;12.73;;;;;;;11.53;100.00;101768.94;5022522;28;20014;-68
2023/09/27 04:12:25;;;;;;;13.32;12.07;;;;;;;11.41;100.00;101770.28;5022792;28;20107;-69
2023/09/27 04:14:51;;;;;;;14.27;12.88;;;;;;;11.47;100.00;101788.72;5009795;28;20022;-70
2023/09/27 04:17:16;;;;;;;14.77;12.50;;;;;;;11.44;100.00;101805.69;5022686;28;20052;-70
2023/09/27 04:19:41;;;;;;;13.40;12.02;;;;;;;11.47;100.00;101802.06;5022648;28;20029;-70
2023/09/27 04:22:07;;;;;;;14.48;12.95;;;;;;;11.45;100.00;101799.47;5022668;28;20091;-69
2023/09/27 04:24:32;;;;;;;13.65;12.38;;;;;;;11.43;100.00;101800.44;5022942;28;20046;-69
2023/09/27 04:26:58;;;;;;;14.75;13.35;;;;;;;11.42;100.00;101790.72;4991379;28;20045;-69
2023/09/27 04:29:24;;;;;;;13.38;12.05;;;;;;;11.39;100.00;101788.16;5022972;28;20029;-68
2023/09/27 04:31:50;;;;;;;13.23;11.82;;;;;;;11.36;100.00;101791.81;5022375;28;20395;-68
2023/09/27 04:34:16;;;;;;;12.90;11.63;;;;;;;11.33;100.00;101793.72;5021959;28;20033;-69
2023/09/27 04:36:41;;;;;;;12.32;11.20;;;;;;;11.26;100.00;101801.09;5023043;28;20052;-69
2023/09/27 04:39:12;;;;;;;13.13;11.82;;;;;;;11.26;100.00;101797.56;5022523;28;20025;-70
2023/09/27 04:41:38;;;;;;;13.88;12.30;;;;;;;11.29;100.00;101806.31;5022374;28;20044;-69
2023/09/27 04:44:04;;;;;;;12.85;11.65;;;;;;;11.32;100.00;101811.50;5023243;28;20029;-69
2023/09/27 04:46:32;;;;;;;12.60;11.38;;;;;;;11.32;100.00;101806.19;4992020;28;20512;-69
2023/09/27 04:48:58;;;;;;;13.40;12.13;;;;;;;11.31;100.00;101812.44;5022205;28;20029;-69
2023/09/27 04:51:23;;;;;;;12.60;11.30;;;;;;;11.33;100.00;101812.38;5022623;28;20026;-69
2023/09/27 04:53:48;;;;;;;12.57;11.32;;;;;;;11.33;100.00;101799.94;5022153;28;20037;-69
2023/09/27 04:56:14;;;;;;;13.75;12.38;;;;;;;11.31;100.00;101788.47;5022596;28;20021;-70
2023/09/27 04:58:41;;;;;;;13.43;12.15;;;;;;;11.31;100.00;101785.78;5022309;28;20051;-70
2023/09/27 05:01:06;;;;;;;13.57;12.27;;;;;;;11.29;100.00;101785.00;5022072;28;20030;-70
2023/09/27 05:03:32;;;;;;;13.65;12.35;;;;;;;11.25;100.00;101803.84;5022568;28;20025;-69
2023/09/27 05:05:57;;;;;;;13.32;12.10;;;;;;;11.26;100.00;101811.75;5022467;28;20037;-69
2023/09/27 05:08:24;;;;;;;14.75;13.45;;;;;;;11.22;100.00;101805.66;5022322;28;20018;-70
2023/09/27 05:10:50;;;;;;;14.02;12.63;;;;;;;11.26;100.00;101795.78;5022813;28;20059;-70
2023/09/27 05:13:15;;;;;;;14.20;12.90;;;;;;;11.23;100.00;101775.41;5022242;28;20038;-69
2023/09/27 05:15:41;;;;;;;14.82;13.32;;;;;;;11.23;100.00;101803.88;5021538;28;20030;-69
2023/09/27 05:18:06;;;;;;;14.50;13.10;;;;;;;11.28;100.00;101814.34;5022070;28;20029;-69
2023/09/27 05:20:31;;;;;;;19.02;17.02;;;;;;;11.26;100.00;101801.09;5026542;28;20549;-68
2023/09/27 05:22:57;;;;;;;16.13;14.38;;;;;;;11.27;100.00;101793.97;5025823;28;20353;-69
2023/09/27 05:25:22;;;;;;;14.80;13.30;;;;;;;11.23;100.00;101786.09;5025163;28;20046;-69
2023/09/27 05:27:48;;;;;;;14.15;12.85;;;;;;;11.23;100.00;101790.53;5025473;28;20397;-69
2023/09/27 05:30:16;;;;;;;14.70;13.20;;;;;;;11.19;100.00;101772.94;5025076;28;20025;-69
2023/09/27 05:32:42;;;;;;;15.05;13.45;;;;;;;11.17;100.00;101769.47;5025073;28;20132;-70
2023/09/27 05:35:08;;;;;;;13.93;12.63;;;;;;;11.18;100.00;101777.41;5025376;28;20507;-68
2023/09/27 05:37:33;;;;;;;14.38;12.95;;;;;;;11.15;100.00;101779.31;5026040;28;20022;-68
2023/09/27 05:39:59;;;;;;;14.35;13.00;;;;;;;11.13;100.00;101783.84;5025362;28;20480;-69
2023/09/27 05:42:24;;;;;;;14.25;12.95;;;;;;;11.16;100.00;101779.28;5025111;28;20025;-69
2023/09/27 05:44:50;;;;;;;15.68;14.18;;;;;;;11.16;100.00;101779.28;5025621;28;20108;-69
2023/09/27 05:47:16;;;;;;;14.25;12.88;;;;;;;11.15;100.00;101776.66;5025394;28;20360;-69
2023/09/27 05:49:42;;;;;;;14.48;13.07;;;;;;;11.14;100.00;101777.59;5025466;28;20452;-69
2023/09/27 05:52:12;;;;;;;14.65;13.20;;;;;;;11.11;100.00;101770.56;5025437;28;20530;-70
2023/09/27 05:54:40;;;;;;;13.93;12.60;;;;;;;11.13;100.00;101767.88;5026098;28;20052;-69
2023/09/27 05:57:06;;;;;;;15.93;14.32;;;;;;;11.10;100.00;101752.84;5023921;28;20022;-69
2023/09/27 05:59:33;;;;;;;14.35;12.95;;;;;;;11.15;100.00;101766.00;5025797;28;20348;-68
2023/09/27 06:01:58;;;;;;;14.60;13.00;;;;;;;11.16;100.00;101760.63;5024576;28;20108;-69
2023/09/27 06:04:24;;;;;;;15.52;14.05;;;;;;;11.20;100.00;101764.91;5025576;28;20499;-68
2023/09/27 06:06:50;;;;;;;14.95;13.43;;;;;;;11.23;100.00;101758.56;5023482;28;20675;-69
2023/09/27 06:09:16;;;;;;;15.23;13.82;;;;;;;11.20;100.00;101756.00;5025064;28;20079;-69
2023/09/27 06:11:41;;;;;;;14.88;13.45;;;;;;;11.25;100.00;101762.06;5025184;28;20567;-69
2023/09/27 06:14:10;;;;;;;16.35;14.68;;;;;;;11.29;100.00;101762.81;5025395;28;20068;-70
2023/09/27 06:16:37;;;;;;;15.77;14.38;;;;;;;11.34;100.00;101771.50;5024699;28;20025;-69
2023/09/27 06:19:04;;;;;;;15.43;13.98;;;;;;;11.39;100.00;101770.38;5026179;28;20025;-69
2023/09/27 06:21:30;;;;;;;14.88;13.48;;;;;;;11.46;100.00;101771.00;5015668;28;20032;-70
2023/09/27 06:23:55;;;;;;;15.73;14.05;;;;;;;11.55;100.00;101769.78;5020070;28;20025;-69
2023/09/27 06:26:21;;;;;;;16.58;15.07;;;;;;;11.62;100.00;101766.81;5024897;28;20033;-69
2023/09/27 06:28:46;;;;;;;15.82;14.32;;;;;;;11.79;100.00;101774.13;5024495;28;20108;-69
2023/09/27 06:31:13;;;;;;;16.48;14.98;;;;;;;12.04;100.00;101773.09;5022725;28;20037;-68
2023/09/27 06:33:43;;;;;;;15.93;14.43;;;;;;;12.33;100.00;101774.53;5023686;28;20455;-69
2023/09/27 06:36:10;;;;;;;14.90;13.48;;;;;;;12.66;100.00;101769.50;5024168;28;20036;-69
2023/09/27 06:38:36;;;;;;;14.35;12.98;;;;;;;13.01;100.00;101761.69;5024533;28;20025;-69
2023/09/27 06:41:02;;;;;;;13.38;12.18;;;;;;;13.29;100.00;101756.81;5025169;28;20056;-70
2023/09/27 06:43:31;;;;;;;13.63;12.23;;;;;;;13.53;100.00;101754.75;5024174;28;20032;-69
2023/09/27 06:45:56;;;;;;;13.00;11.57;;;;;;;13.77;100.00;101741.13;5024094;28;20025;-69
2023/09/27 06:48:24;;;;;;;12.73;10.77;;;;;;;13.92;100.00;101746.59;5024304;28;20036;-69
2023/09/27 06:50:49;;;;;;;12.43;11.20;;;;;;;14.10;100.00;101742.09;5024326;28;20106;-69
2023/09/27 06:53:15;;;;;;;11.45;10.25;;;;;;;14.52;100.00;101740.84;5024834;28;20017;-69
2023/09/27 06:55:41;;;;;;;11.63;10.43;;;;;;;14.63;100.00;101753.63;5024392;28;20032;-70
2023/09/27 06:58:07;;;;;;;11.95;10.75;;;;;;;14.60;100.00;101767.22;4996278;28;20116;-70
2023/09/27 07:00:32;;;;;;;11.70;10.60;;;;;;;14.57;100.00;101772.75;5019940;28;20164;-69
2023/09/27 07:02:58;;;;;;;12.68;10.77;;;;;;;14.36;100.00;101775.56;5024071;28;20083;-69
2023/09/27 07:05:23;;;;;;;12.45;11.15;;;;;;;14.26;100.00;101760.94;5024146;28;20036;-69
2023/09/27 07:07:50;;;;;;;12.43;11.13;;;;;;;14.21;100.00;101760.28;5024045;28;20574;-68
2023/09/27 07:10:16;;;;;;;13.75;11.15;;;;;;;14.16;100.00;101754.28;5023869;28;20090;-69
2023/09/27 07:12:42;;;;;;;12.68;11.30;;;;;;;14.08;100.00;101757.34;5023612;28;20017;-69
2023/09/27 07:15:14;;;;;;;12.75;11.50;;;;;;;14.05;100.00;101762.88;5002417;28;20411;-69
2023/09/27 07:17:40;;;;;;;13.68;12.23;;;;;;;14.00;100.00;101767.59;5020706;28;20091;-69
2023/09/27 07:20:20;;;;;;;13.55;12.18;;;;;;;14.00;100.00;101767.59;5024009;28;20439;-69
2023/09/27 07:22:47;;;;;;;13.05;11.75;;;;;;;14.04;100.00;101773.66;5024396;28;20484;-69
2023/09/27 07:25:18;;;;;;;13.38;11.82;;;;;;;14.01;100.00;101779.19;5024194;28;20195;-69
2023/09/27 07:27:46;;;;;;;13.05;11.75;;;;;;;14.03;100.00;101785.31;5023946;28;20030;-69
2023/09/27 07:30:11;;;;;;;13.38;12.18;;;;;;;14.05;100.00;101778.94;5023633;28;20029;-68
2023/09/27 07:32:39;;;;;;;13.68;12.27;;;;;;;14.06;100.00;101774.47;5023746;28;20396;-69
2023/09/27 07:35:09;;;;;;;13.23;11.43;;;;;;;14.10;100.00;101776.91;5023736;28;20021;-69
2023/09/27 07:37:37;;;;;;;13.18;11.75;;;;;;;14.15;100.00;101784.69;5023564;28;20036;-69
2023/09/27 07:40:08;;;;;;;13.82;12.43;;;;;;;14.18;100.00;101777.38;5024432;28;20026;-69
2023/09/27 07:42:35;;;;;;;12.88;11.55;;;;;;;14.37;100.00;101785.31;5023878;28;20035;-68
2023/09/27 07:45:01;;;;;;;13.75;12.45;;;;;;;14.55;100.00;101766.59;5023978;28;20036;-69
2023/09/27 07:47:26;;;;;;;13.02;11.82;;;;;;;14.78;100.00;101760.00;5023636;28;20025;-69
2023/09/27 07:49:52;;;;;;;14.48;13.05;;;;;;;15.14;100.00;101768.72;5023288;28;20032;-70
2023/09/27 07:52:17;;;;;;;15.18;13.68;;;;;;;15.59;100.00;101772.47;5023111;28;20029;-70
2023/09/27 07:54:45;;;;;;;14.77;13.38;;;;;;;16.08;100.00;101768.75;5023134;28;20018;-69
2023/09/27 07:57:11;;;;;;;13.68;12.50;;;;;;;16.62;100.00;101769.94;5022494;28;20026;-69
2023/09/27 07:59:36;;;;;;;14.30;12.90;;;;;;;16.78;100.00;101748.38;5023109;28;20029;-68
2023/09/27 08:02:01;;;;;;;13.93;12.73;;;;;;;17.27;98.79;101758.72;5023119;28;20328;-68
2023/09/27 08:04:27;;;;;;;14.27;13.00;;;;;;;17.57;96.76;101766.63;5023395;28;20283;-69
2023/09/27 08:06:52;;;;;;;14.85;13.48;;;;;;;17.77;96.60;101762.66;5023430;28;20539;-69
2023/09/27 08:09:21;;;;;;;14.45;13.25;;;;;;;18.00;94.56;101773.72;5022988;28;20045;-69
2023/09/27 08:11:47;;;;;;;15.32;13.82;;;;;;;18.37;91.94;101770.22;5023214;28;20083;-70
2023/09/27 08:14:15;;;;;;;14.35;12.95;;;;;;;18.86;89.71;101768.66;5022992;28;20041;-70
2023/09/27 08:16:41;;;;;;;14.70;13.30;;;;;;;19.09;86.29;101767.00;5023333;28;20488;-70
2023/09/27 08:19:06;;;;;;;15.23;13.77;;;;;;;19.06;86.52;101784.31;5023315;28;20067;-70
2023/09/27 08:21:31;;;;;;;14.15;12.98;;;;;;;18.73;89.05;101782.16;5023800;28;20103;-70
2023/09/27 08:23:57;;;;;;;14.65;13.35;;;;;;;18.65;89.44;101796.16;5023035;28;20060;-71
2023/09/27 08:26:22;;;;;;;14.70;13.43;;;;;;;18.95;89.40;101796.81;5023294;28;20440;-69
2023/09/27 08:28:48;;;;;;;14.85;13.60;;;;;;;19.12;87.53;101804.56;5022927;28;20029;-70
2023/09/27 08:31:13;;;;;;;14.20;12.90;;;;;;;19.54;85.43;101805.13;5022753;28;20017;-69
2023/09/27 08:33:38;;;;;;;13.82;12.52;;;;;;;19.98;83.60;101788.34;5022663;28;20471;-69
2023/09/27 08:36:08;;;;;;;14.48;13.00;;;;;;;20.29;79.82;101781.47;5023197;28;20021;-70
2023/09/27 08:38:33;;;;;;;14.43;13.02;;;;;;;20.49;78.51;101798.03;5022842;28;20025;-70
2023/09/27 08:40:59;;;;;;;14.07;12.68;;;;;;;21.26;76.89;101807.19;5022254;28;20036;-70
2023/09/27 08:43:28;;;;;;;12.68;11.40;;;;;;;22.03;70.05;101809.00;5021889;28;20369;-69
2023/09/27 08:45:53;;;;;;;13.18;11.88;;;;;;;22.58;69.33;101805.22;5022340;28;20029;-70
2023/09/27 08:48:22;;;;;;;12.85;11.60;;;;;;;23.53;65.23;101812.25;5022340;28;20090;-70
2023/09/27 08:50:49;;;;;;;11.98;10.77;;;;;;;24.35;61.41;101814.66;5022292;28;20358;-70
2023/09/27 08:53:15;;;;;;;11.38;10.20;;;;;;;24.55;58.90;101812.81;5022759;28;20061;-72
2023/09/27 08:55:45;;;;;;;11.77;10.57;;;;;;;24.63;61.13;101812.09;5025828;28;20017;-70
2023/09/27 08:58:12;;;;;;;11.88;10.05;;;;;;;24.38;58.34;101805.41;5026772;28;20029;-72
2023/09/27 09:00:41;;;;;;;10.25;9.20;;;;;;;24.87;56.58;101790.66;5026297;28;20017;-70
2023/09/27 09:03:07;;;;;;;10.40;9.40;;;;;;;26.12;54.45;101799.19;5026619;28;20030;-71
2023/09/27 09:05:33;;;;;;;9.82;8.80;;;;;;;27.20;51.11;101800.69;5026960;28;20025;-71
2023/09/27 09:08:00;;;;;;;10.85;9.82;;;;;;;27.60;49.14;101806.47;5026967;28;20033;-72
2023/09/27 09:10:27;;;;;;;11.60;10.48;;;;;;;27.24;48.88;101802.06;5025801;28;20220;-69
2023/09/27 09:12:52;;;;;;;11.52;10.23;;;;;;;26.15;51.14;101806.22;5026484;28;20490;-69
2023/09/27 09:15:40;;;;;;;11.50;10.00;;;;;;;25.06;57.41;101811.53;5026113;28;20033;-70
2023/09/27 09:18:28;;;;;;;12.20;10.48;;;;;;;23.85;60.53;101803.91;5013370;28;20036;-69
2023/09/27 09:20:57;;;;;;;11.13;10.13;;;;;;;23.00;61.91;101794.34;5025937;28;20033;-69
2023/09/27 09:23:30;;;;;;;11.18;10.10;;;;;;;24.15;61.34;101792.03;5004593;28;20528;-70
2023/09/27 09:25:57;;;;;;;;;;;;;;;26.01;57.94;101788.53;5024389;28;20053;-70
2023/09/27 09:28:24;;;;;;;12.23;11.02;;;;;;;26.73;52.37;101790.16;5025901;28;19920;-70
2023/09/27 09:30:50;;;;;;;11.20;10.07;;;;;;;27.00;50.94;101785.50;5025574;28;20083;-70
2023/09/27 09:33:17;;;;;;;11.18;10.05;;;;;;;26.49;51.98;101779.91;5026405;28;20033;-69
2023/09/27 09:35:42;;;;;;;14.27;10.90;;;;;;;26.16;52.05;101777.91;5025875;28;20496;-70
2023/09/27 09:38:08;;;;;;;11.70;10.55;;;;;;;25.71;53.54;101779.69;5026521;28;20029;-70
2023/09/27 09:40:50;;;;;;;10.15;9.15;;;;;;;25.09;54.58;101774.00;5025749;28;20305;-70
2023/09/27 09:43:37;;;;;;;11.60;10.50;;;;;;;24.19;58.55;101760.84;5025737;28;20061;-69
2023/09/27 09:46:06;;;;;;;12.30;11.05;;;;;;;23.32;60.63;101767.00;5025671;28;20496;-70
2023/09/27 09:48:33;;;;;;;11.80;10.45;;;;;;;22.92;62.00;101764.31;5026055;28;20030;-69
2023/09/27 09:51:08;;;;;;;12.18;10.95;;;;;;;22.52;65.48;101766.91;5025549;28;20017;-70
2023/09/27 09:53:40;;;;;;;11.50;10.35;;;;;;;22.56;65.40;101750.22;5026197;28;20287;-69
2023/09/27 09:56:07;;;;;;;12.02;10.75;;;;;;;23.02;63.35;101748.91;5012631;28;20515;-69
2023/09/27 09:58:47;;;;;;;12.68;11.35;;;;;;;23.38;61.86;101745.75;5025921;28;20036;-69
2023/09/27 10:01:18;;;;;;;11.73;10.52;;;;;;;24.32;61.46;101738.78;5004719;28;20025;-70
2023/09/27 10:03:47;;;;;;;12.63;10.52;;;;;;;25.62;54.94;101733.38;5004737;28;20017;-70
2023/09/27 10:06:17;;;;;;;12.57;11.05;;;;;;;26.68;52.13;101735.16;5025355;28;20180;-70
2023/09/27 10:08:44;;;;;;;11.10;10.10;;;;;;;27.03;51.07;101734.13;5025345;28;20021;-70
2023/09/27 10:11:10;;;;;;;12.07;10.32;;;;;;;28.44;47.56;101726.91;5025515;28;20029;-70
2023/09/27 10:13:39;;;;;;;12.40;10.45;;;;;;;28.88;44.72;101728.31;5025644;28;20040;-70
2023/09/27 10:16:08;;;;;;;11.18;10.02;;;;;;;29.63;44.26;101725.91;5025828;28;20036;-70
2023/09/27 10:18:37;;;;;;;10.30;9.15;;;;;;;30.88;40.78;101722.75;5025937;28;20033;-71
2023/09/27 10:21:03;;;;;;;9.50;8.50;;;;;;;31.18;39.73;101718.06;5025603;28;20021;-70
2023/09/27 10:23:58;;;;;;;11.07;8.00;;;;;;;30.27;42.84;101720.97;5024784;28;20164;-70
2023/09/27 10:26:27;;;;;;;9.63;8.40;;;;;;;28.22;45.25;101722.13;5014277;28;20507;-70
2023/09/27 10:29:03;;;;;;;8.48;7.68;;;;;;;28.43;46.81;101716.13;5024179;28;20079;-70
2023/09/27 10:31:30;;;;;;;8.70;7.80;;;;;;;29.00;44.39;101718.72;5024853;28;20029;-71
2023/09/27 10:33:55;;;;;;;9.25;7.82;;;;;;;30.18;44.77;101719.38;5024488;28;20018;-71
2023/09/27 10:36:20;;;;;;;6.93;6.32;;;;;;;31.48;38.49;101729.91;5025068;28;20048;-70
2023/09/27 10:38:49;;;;;;;6.95;6.25;;;;;;;32.32;37.28;101726.50;5024117;28;20487;-70
2023/09/27 10:41:33;;;;;;;9.00;6.45;;;;;;;33.87;37.23;101714.94;5024513;28;20037;-71
2023/09/27 10:43:59;;;;;;;7.88;6.00;;;;;;;33.05;34.89;101719.56;5017769;28;20029;-70
2023/09/27 10:46:25;;;;;;;12.60;6.88;;;;;;;32.37;36.21;101707.44;5024128;28;20076;-70
2023/09/27 10:49:00;;;;;;;7.85;6.32;;;;;;;32.57;36.15;101704.88;5024675;28;20029;-71
2023/09/27 10:51:26;;;;;;;8.18;5.70;;;;;;;33.23;34.40;101691.41;5023930;28;20165;-70
2023/09/27 10:53:53;;;;;;;8.10;7.22;;;;;;;32.91;34.49;101688.28;5024150;28;20484;-70
2023/09/27 10:56:19;;;;;;;5.75;5.07;;;;;;;32.56;34.53;101681.94;5024241;28;20060;-70
2023/09/27 10:58:45;;;;;;;6.13;5.32;;;;;;;32.16;36.03;101678.91;5024251;28;20119;-70
2023/09/27 11:01:11;;;;;;;7.20;5.30;;;;;;;32.38;35.43;101681.59;5024344;28;20032;-70
2023/09/27 11:03:37;;;;;;;5.78;4.57;;;;;;;32.05;36.54;101678.59;5024060;28;20491;-71
2023/09/27 11:06:10;;;;;;;5.00;4.50;;;;;;;31.86;37.38;101669.13;5023779;28;20037;-71